AirNav   Everest Fuels
 
 442 users online  

GA2 Peach State Aerodrome
Williamson, Georgia, USA

GOING TO WILLIAMSON?


FAA INFORMATION EFFECTIVE 21 MAY 2020

Location

FAA Identifier: GA2
Lat/Long: 33-11-00.4310N 084-22-17.7250W
33-11.007183N 084-22.295417W
33.1834531,-84.3715903
(estimated)
Elevation: 926 ft. / 282 m (estimated)
Variation: 02W (1985)
From city: 1 mile W of WILLIAMSON, GA
Time zone: UTC -4 (UTC -5 during Standard Time)
Zip code: 30292

Airport Operations

Airport use: Open to the public
Activation date: 07/1967
Control tower: no
ARTCC: ATLANTA CENTER
FSS: MACON FLIGHT SERVICE STATION
NOTAMs facility: MCN (NOTAM-D service available)
Attendance: 0900-1800
Wind indicator: yes
Segmented circle: no

Airport Communications

CTAF/UNICOM: 122.725
WX AWOS-3 at 6A2 (6 nm NE): 119.750 (770-227-3934)
WX AWOS-3 at HMP (13 nm N): 124.825 (770-707-1719)
WX ASOS at FFC (15 nm NW): 118.525 (770-487-1610)
WX AWOS-3 at OPN (15 nm S): 133.975 (706-646-4123)

Nearby radio navigation aids

VOR radial/distance  VOR name  Freq  Var
ATLr178/26.9ATLANTA VORTAC116.9005W

 
NDB name  Hdg/Dist  Freq  Var  ID
PECAT146/9.131605WFFC ..-. ..-. -.-.
COWETA COUNTY107/17.723403WEQQ . --.- --.-
PINE MOUNTAIN054/32.527203WPIM .--. .. --
ALCOVY231/39.937003WVOF ...- --- ..-.

Airport Services

Fuel available: 100LL
Parking: hangars and tiedowns
Airframe service: MAJOR
Powerplant service: MINOR
Bottled oxygen: NONE
Bulk oxygen: NONE

Runway Information

Runway 13/31

Dimensions: 2400 x 100 ft. / 732 x 30 m
Surface: turf, in good condition
Runway edge markings: THR MKD BY TIRES.
RUNWAY 13  RUNWAY 31
Traffic pattern: rightleft
Markings: NSTDNSTD
Runway end identifier lights: nono
Obstructions: 56 ft. trees, 80 ft. left of centerline46 ft. trees, 322 ft. from runway, 125 ft. right of centerline, 7:1 slope to clear

Airport Ownership and Management from official FAA records

Ownership: Privately-owned
Owner: KEVEN SASSER
PO BOX 156
WILLIAMSON, GA 30292
Phone 405-406-6313
Manager: KEVEN SASSER
PO BOX 156
WILLIAMSON, GA 30292
Phone 405-406-6313

Airport Operational Statistics

Aircraft based on the field: 25
Single engine airplanes: 24
Multi engine airplanes: 1
    
Aircraft operations: avg 67/week *
79% local general aviation
21% transient general aviation
* for 12-month period ending 31 December 2019

Additional Remarks

FOR CTC FBO AT 770-227-9989.
FOR CD CTC ATLANTA APCH AT 678-364-6131.
FOR DAYTIME USE ONLY. NO RWY LGTS OR BCN.

Instrument Procedures

There are no published instrument procedures at GA2.

Some nearby airports with instrument procedures:

6A2 - Griffin-Spalding County Airport (6 nm NE)
KHMP - Henry County Airport (13 nm N)
KFFC - Atlanta Regional Airport-Falcon Field (15 nm NW)
KOPN - Thomaston-Upson County Airport (15 nm S)
KCCO - Newnan Coweta County Airport (21 nm W)
 
Loc | Ops | Rwys | IFR | FBO | Links
Com | Nav | Svcs | Stats | Notes
Area around GA2 (Peach State Aerodrome)
 
Road maps at: MapQuest Bing Google
 
Aerial photo
WARNING: Photo may not be current or correct
Aerial photo of GA2 (Peach State Aerodrome)
Photo by J. Michael
Photo taken 12-Jul-2008

Do you have a better or more recent aerial photo of Peach State Aerodrome that you would like to share? If so, please send us your photo.

 
Sectional chart

 
Airport distance calculator
Flying to Peach State Aerodrome? Find the distance to fly.

From to GA2

Sunrise and sunset
Times for 29-May-2020
 Local
(UTC-4)
 Zulu
(UTC)
Morning civil twilight06:0310:03
Sunrise06:3110:31
Sunset20:3900:39
Evening civil twilight21:0701:07

Current date and time
Zulu (UTC)  29-May-2020 05:59:00
Local (UTC-4)  29-May-2020 01:59:00
 
METAR
K6A2 
6nm NE 
290535Z AUTO 00000KT 10SM CLR 20/19 A3004 RMK AO2
KHMP 
13nm N 
290535Z AUTO 00000KT 10SM CLR 20/19 A3007 RMK AO2 T01970195
KFFC 
14nm NW 
290553Z AUTO 00000KT 8SM CLR 22/20 A3004 RMK AO2 SLP166 T02170200 10256 20211 58005
KOPN 
15nm S 
290535Z AUTO 00000KT 10SM CLR 21/20 A3005 RMK AO2
TAF
KATL 
27nm N 
290520Z 2906/3012 22004KT P6SM FEW045 BKN250 FM291000 24003KT P6SM FEW035 BKN120 TEMPO 2910/2912 4SM BR FM291500 23006KT P6SM VCSH SCT040 SCT120 FM291900 25007KT P6SM -SHRA BKN050 PROB30 2920/2924 4SM TSRA BKN040CB FM300100 25005KT P6SM SCT050 BKN120 FM301000 28004KT P6SM SCT015
NOTAMs
Click for the latest NOTAMs
NOTAMs are issued by the DoD/FAA and will open in a separate window not controlled by AirNav.

 

 
 

FBO, Fuel Providers, and Aircraft Ground Support

  
 Business Name 
 
 Contact 
 
 Services / Description 
 
Fuel Prices
 
Comments
  
Peach State Aerodrome 405-406-6313
[web site]
[email]
Aviation fuel, Aircraft parking (ramp or tiedown), Hangars, Hangar leasing / sales, Flight training, Aircraft rental, Aircraft maintenance, Aircraft modifications, ...

More info about Peach State Aerodrome
independent
100LL
SS $2.99 
 Updated 21-May-2020
 
   1 read write
SS=Self service
Update Fuel Prices
 

Would you like to see your business listed on this page?

 If your business provides an interesting product or service to pilots, flight crews, aircraft, or users of the Peach State Aerodrome, you should consider listing it here.  To start the listing process, click on the button below
 
Add a business
 

Other Pages about Peach State Aerodrome

Update a link
 
Copyright © AirNav, LLC. All rights reserved. Privacy Policy  Contact